Time;durP1;ratioP1;P1;durP2;ratioP2;P2;SDS_P1;SDS_P2;PMS_P1;PMS_P2;Temp;Humidity;BMP_temperature;BMP_pressure;BME280_temperature;BME280_humidity;BME280_pressure;Samples;Min_cycle;Max_cycle;Signal;HPM_P1;HPM_P2
2021/06/04 00:02:23;;;;;;;21.90;11.82;;;;;;;15.43;66.51;100991.38;5052843;28;20398;-74
2021/06/04 00:04:54;;;;;;;16.48;12.00;;;;;;;15.24;67.66;100991.78;5053012;28;20397;-75
2021/06/04 00:07:21;;;;;;;17.45;12.20;;;;;;;15.20;67.07;100992.97;5052900;28;20067;-74
2021/06/04 00:09:49;;;;;;;17.17;10.73;;;;;;;15.11;69.30;100994.44;5053134;28;20474;-74
2021/06/04 00:12:17;;;;;;;21.63;14.05;;;;;;;15.00;68.99;100996.13;5051715;28;20127;-79
2021/06/04 00:14:46;;;;;;;18.83;11.45;;;;;;;15.01;69.84;100995.16;5053031;28;20033;-74
2021/06/04 00:17:18;;;;;;;18.08;11.70;;;;;;;14.97;70.28;100989.16;5053164;28;20122;-74
2021/06/04 00:19:46;;;;;;;17.90;11.43;;;;;;;14.99;70.31;100992.59;5053269;28;20560;-74
2021/06/04 00:22:16;;;;;;;16.65;11.27;;;;;;;14.99;70.31;100999.78;5053006;28;20051;-74
2021/06/04 00:24:47;;;;;;;13.45;10.45;;;;;;;15.12;69.54;100992.63;5053171;28;20072;-75
2021/06/04 00:27:15;;;;;;;15.25;10.50;;;;;;;15.18;69.30;100986.84;5052930;28;20041;-70
2021/06/04 00:29:43;;;;;;;15.50;11.40;;;;;;;15.26;66.14;100995.25;5052700;28;20041;-70
2021/06/04 00:32:13;;;;;;;11.13;8.63;;;;;;;15.56;63.28;100991.41;5053087;28;20433;-71
2021/06/04 00:34:42;;;;;;;12.95;8.48;;;;;;;15.58;63.36;100989.47;5052385;28;20394;-70
2021/06/04 00:37:10;;;;;;;14.52;7.90;;;;;;;15.77;61.55;100994.47;5052683;28;20073;-70
2021/06/04 00:39:40;;;;;;;15.00;6.72;;;;;;;15.81;60.71;100996.81;5052565;28;20052;-70
2021/06/04 00:42:16;;;;;;;10.95;6.70;;;;;;;15.76;60.58;101001.69;5052882;28;20508;-74
2021/06/04 00:44:47;;;;;;;10.80;7.07;;;;;;;15.65;61.07;100993.50;5052339;28;20087;-73
2021/06/04 00:47:15;;;;;;;15.07;8.38;;;;;;;15.55;63.93;100995.06;5052869;28;20079;-74
2021/06/04 00:49:44;;;;;;;15.90;8.38;;;;;;;15.50;65.57;100997.22;5052496;28;20065;-74
2021/06/04 00:52:15;;;;;;;13.48;8.70;;;;;;;15.32;66.21;100996.63;5052676;28;20041;-74
2021/06/04 00:54:44;;;;;;;11.65;7.95;;;;;;;15.28;65.22;100996.00;5051504;28;20090;-74
2021/06/04 00:57:12;;;;;;;10.73;6.85;;;;;;;15.30;64.14;100995.88;5052630;28;20540;-73
2021/06/04 00:59:45;;;;;;;10.40;6.63;;;;;;;15.35;63.62;100993.75;5052241;28;20136;-71
2021/06/04 01:02:15;;;;;;;11.03;6.97;;;;;;;15.34;65.26;100995.56;5052423;28;20056;-74
2021/06/04 01:04:46;;;;;;;12.73;7.63;;;;;;;15.43;65.52;100997.63;5052073;28;20103;-71
2021/06/04 01:07:20;;;;;;;10.75;7.47;;;;;;;15.62;65.22;100991.88;5052620;28;20389;-73
2021/06/04 01:10:16;;;;;;;11.65;7.43;;;;;;;15.61;65.41;100995.53;5052848;28;20131;-73
2021/06/04 01:12:55;;;;;;;13.15;7.28;;;;;;;15.37;66.18;100998.06;5043238;28;20049;-73
2021/06/04 01:15:40;;;;;;;12.30;7.25;;;;;;;15.30;66.42;100991.38;5054930;28;20091;-73
2021/06/04 01:18:12;;;;;;;10.68;6.80;;;;;;;15.32;65.77;100988.56;5056778;28;20045;-71
2021/06/04 01:20:46;;;;;;;11.82;6.88;;;;;;;15.53;65.68;100988.91;5056240;28;20505;-72
2021/06/04 01:23:31;;;;;;;11.93;6.82;;;;;;;15.70;65.59;100984.13;5056563;28;20083;-73
2021/06/04 01:26:06;;;;;;;12.68;7.50;;;;;;;15.46;67.83;100992.06;5056116;28;20045;-73
2021/06/04 01:28:38;;;;;;;10.40;7.15;;;;;;;15.15;70.04;100987.03;5055737;28;20120;-75
2021/06/04 01:31:13;;;;;;;14.25;7.50;;;;;;;14.82;71.41;101001.75;5056196;28;20048;-74
2021/06/04 01:33:48;;;;;;;13.20;7.07;;;;;;;14.96;70.72;100991.91;5055587;28;20043;-74
2021/06/04 01:36:21;;;;;;;13.02;7.22;;;;;;;15.09;69.94;100985.63;5056023;28;20044;-72
2021/06/04 01:38:51;;;;;;;12.05;7.13;;;;;;;14.93;70.24;100986.75;5056275;28;20036;-73
2021/06/04 01:41:23;;;;;;;10.32;7.03;;;;;;;14.83;70.57;100976.63;5056089;28;20040;-72
2021/06/04 01:43:56;;;;;;;13.40;7.60;;;;;;;14.83;71.00;100981.13;5055824;28;20056;-72
2021/06/04 01:46:28;;;;;;;10.55;7.28;;;;;;;14.85;70.67;100982.75;5055674;28;20488;-78
2021/06/04 01:49:02;;;;;;;10.57;7.90;;;;;;;15.03;70.36;100982.47;5055604;28;20049;-74
2021/06/04 01:51:36;;;;;;;13.38;7.15;;;;;;;14.98;70.63;100984.63;5055405;28;20044;-74
2021/06/04 01:54:09;;;;;;;14.90;7.28;;;;;;;14.99;70.56;100983.66;5055695;28;20099;-74
2021/06/04 01:56:41;;;;;;;8.75;6.95;;;;;;;15.03;70.55;100985.16;5055196;28;20041;-74
2021/06/04 01:59:15;;;;;;;11.63;6.88;;;;;;;14.93;70.83;100986.75;5055609;28;20052;-73
2021/06/04 02:01:45;;;;;;;11.15;6.65;;;;;;;14.86;71.20;100984.50;5055407;28;20041;-73
2021/06/04 02:04:17;;;;;;;12.20;7.10;;;;;;;15.00;70.74;100980.00;5055477;28;20102;-73
2021/06/04 02:06:46;;;;;;;12.75;7.53;;;;;;;15.08;70.46;100991.97;5055022;28;20049;-73
2021/06/04 02:09:17;;;;;;;9.60;6.65;;;;;;;15.27;69.84;100985.34;5055188;28;20045;-73
2021/06/04 02:11:49;;;;;;;14.07;6.88;;;;;;;15.34;69.82;100990.19;5055149;28;20045;-73
2021/06/04 02:14:23;;;;;;;11.20;7.15;;;;;;;15.34;70.12;100992.88;5055064;28;20044;-74
2021/06/04 02:17:02;;;;;;;11.82;6.70;;;;;;;15.26;69.94;100989.88;5055178;28;20045;-74
2021/06/04 02:19:41;;;;;;;13.38;6.88;;;;;;;15.10;70.89;100997.25;5053343;28;20128;-74
2021/06/04 02:22:17;;;;;;;11.00;6.63;;;;;;;14.92;71.66;101002.00;5055267;28;20064;-74
2021/06/04 02:24:49;;;;;;;12.88;7.18;;;;;;;14.73;72.37;100996.13;5054653;28;20060;-75
2021/06/04 02:27:27;;;;;;;13.93;7.55;;;;;;;14.68;71.58;100993.75;5054987;28;20486;-74
2021/06/04 02:30:01;;;;;;;10.52;7.28;;;;;;;14.73;71.46;100994.31;5054981;28;20037;-74
2021/06/04 02:32:35;;;;;;;12.57;7.32;;;;;;;14.88;71.97;101000.50;5054714;28;20482;-75
2021/06/04 02:35:08;;;;;;;11.13;7.03;;;;;;;14.94;71.61;101004.59;5054896;28;20040;-74
2021/06/04 02:37:41;;;;;;;14.45;6.45;;;;;;;14.91;71.59;100999.44;5054586;28;20055;-75
2021/06/04 02:40:16;;;;;;;12.13;7.38;;;;;;;15.11;70.91;101007.00;5054753;28;20063;-73
2021/06/04 02:42:50;;;;;;;11.57;6.78;;;;;;;15.32;69.99;101002.00;5054369;28;20037;-74
2021/06/04 02:45:25;;;;;;;12.98;6.90;;;;;;;15.12;70.83;101000.69;5053252;28;20072;-74
2021/06/04 02:47:56;;;;;;;10.82;7.30;;;;;;;14.87;71.91;100996.97;5054965;28;20394;-73
2021/06/04 02:50:29;;;;;;;11.50;7.35;;;;;;;14.86;71.44;100997.94;5054613;28;20445;-73
2021/06/04 02:53:14;;;;;;;;;;;;;;;15.17;69.10;101009.31;5054916;28;20041;-73
2021/06/04 02:56:00;;;;;;;13.75;7.13;;;;;;;15.17;69.41;101006.63;5054409;28;20324;-73
2021/06/04 02:58:29;;;;;;;13.68;7.60;;;;;;;14.88;71.03;101005.88;5054213;28;20068;-80
2021/06/04 03:00:57;;;;;;;11.63;7.97;;;;;;;15.05;70.27;101010.97;5054314;28;20037;-73
2021/06/04 03:03:25;;;;;;;9.63;6.93;;;;;;;14.98;70.20;101009.66;5054273;28;20049;-74
2021/06/04 03:05:53;;;;;;;10.27;6.90;;;;;;;14.84;71.35;101015.94;5054036;28;20049;-74
2021/06/04 03:08:22;;;;;;;10.48;7.07;;;;;;;15.00;70.29;101021.16;5054240;28;20048;-74
2021/06/04 03:10:53;;;;;;;13.73;7.45;;;;;;;14.98;70.42;101016.88;5052772;28;20053;-74
2021/06/04 03:13:23;;;;;;;11.98;7.60;;;;;;;15.12;69.63;101020.34;5054475;28;20048;-72
2021/06/04 03:15:57;;;;;;;10.93;6.97;;;;;;;14.95;70.31;101027.81;5053675;28;20076;-72
2021/06/04 03:18:28;;;;;;;11.45;6.80;;;;;;;14.88;69.72;101030.91;5054350;28;20132;-71
2021/06/04 03:20:57;;;;;;;12.60;7.30;;;;;;;15.00;69.38;101025.69;5054311;28;20070;-72
2021/06/04 03:23:35;;;;;;;12.10;6.80;;;;;;;15.07;69.07;101027.00;5053991;28;20425;-71
2021/06/04 03:26:09;;;;;;;11.20;6.97;;;;;;;15.00;69.21;101031.06;5053659;28;20072;-71
2021/06/04 03:28:39;;;;;;;14.07;6.55;;;;;;;15.09;68.67;101030.44;5053545;28;20086;-71
2021/06/04 03:31:14;;;;;;;10.93;7.20;;;;;;;15.16;67.94;101029.09;5053792;28;20171;-72
2021/06/04 03:33:42;;;;;;;10.05;6.97;;;;;;;15.27;68.29;101034.59;5053476;28;20451;-75
2021/06/04 03:36:13;;;;;;;12.07;7.15;;;;;;;15.36;68.59;101028.59;5053810;28;20056;-74
2021/06/04 03:38:42;;;;;;;12.63;7.22;;;;;;;15.27;68.95;101036.41;5052710;28;20045;-75
2021/06/04 03:41:12;;;;;;;12.82;7.78;;;;;;;15.31;69.14;101038.78;5053364;28;20470;-73
2021/06/04 03:43:43;;;;;;;14.25;7.45;;;;;;;15.41;68.58;101042.56;5053247;28;20063;-74
2021/06/04 03:46:13;;;;;;;12.80;7.40;;;;;;;16.03;66.62;101045.47;5053441;28;20049;-67
2021/06/04 03:48:41;;;;;;;10.88;6.93;;;;;;;17.62;61.12;101043.66;5053065;28;20505;-73
2021/06/04 03:51:15;;;;;;;11.98;6.70;;;;;;;18.53;58.03;101043.69;5053221;28;20047;-76
2021/06/04 03:53:43;;;;;;;12.70;6.85;;;;;;;19.06;56.00;101041.13;5053351;28;20044;-73
2021/06/04 03:56:14;;;;;;;10.93;6.55;;;;;;;19.38;54.66;101042.00;5053135;28;20040;-74
2021/06/04 03:58:43;;;;;;;10.68;6.93;;;;;;;19.26;55.09;101037.63;5053144;28;20103;-71
2021/06/04 04:01:16;;;;;;;9.93;6.22;;;;;;;19.84;53.45;101034.53;5053564;28;20048;-70
2021/06/04 04:03:44;;;;;;;10.45;6.05;;;;;;;20.11;52.73;101033.97;5053128;28;20402;-71
2021/06/04 04:06:12;;;;;;;15.82;6.70;;;;;;;20.74;51.06;101046.34;5053103;28;20073;-71
2021/06/04 04:08:40;;;;;;;11.75;6.88;;;;;;;20.40;51.14;101032.25;5052985;28;20498;-70
2021/06/04 04:11:08;;;;;;;13.95;6.45;;;;;;;20.69;51.16;101043.22;5053284;28;20064;-71
2021/06/04 04:13:36;;;;;;;10.70;6.57;;;;;;;21.26;49.89;101035.31;5052913;28;20379;-72
2021/06/04 04:16:05;;;;;;;11.95;6.95;;;;;;;21.81;48.65;101046.44;5052624;28;20536;-73
2021/06/04 04:18:34;;;;;;;11.70;6.30;;;;;;;21.79;47.84;101030.31;5053070;28;20045;-73
2021/06/04 04:21:06;;;;;;;13.23;6.55;;;;;;;20.54;51.25;101040.03;5052903;28;20049;-73
2021/06/04 04:23:37;;;;;;;9.45;6.07;;;;;;;19.47;54.73;101042.19;5052833;28;20051;-82
2021/06/04 04:26:06;;;;;;;12.60;6.47;;;;;;;18.85;57.13;101041.94;5052976;28;20044;-72
2021/06/04 04:28:36;;;;;;;11.27;6.47;;;;;;;18.41;58.21;101034.72;5052518;28;20482;-78
2021/06/04 04:31:09;;;;;;;12.05;6.45;;;;;;;19.53;55.60;101034.44;5053027;28;20386;-71
2021/06/04 04:33:39;;;;;;;11.73;6.60;;;;;;;20.76;51.95;101038.13;5052683;28;20402;-72
2021/06/04 04:36:11;;;;;;;9.45;6.03;;;;;;;21.10;51.23;101031.31;5053144;28;20037;-73
2021/06/04 04:38:39;;;;;;;10.75;6.78;;;;;;;21.13;50.87;101033.75;5052684;28;20452;-69
2021/06/04 04:41:08;;;;;;;10.25;6.82;;;;;;;21.50;49.31;101038.47;5052738;28;20072;-69
2021/06/04 04:43:38;;;;;;;10.98;6.53;;;;;;;23.07;45.62;101025.94;5052714;28;20144;-78
2021/06/04 04:46:09;;;;;;;9.18;6.50;;;;;;;23.38;44.92;101029.13;5053185;28;20057;-73
2021/06/04 04:48:39;;;;;;;13.82;6.88;;;;;;;24.05;43.14;101032.22;5052470;28;20119;-74
2021/06/04 04:51:08;;;;;;;12.13;6.03;;;;;;;24.27;42.32;101026.19;5057898;28;20044;-66
2021/06/04 04:53:38;;;;;;;10.80;6.82;;;;;;;24.46;42.03;101029.75;5059331;28;20065;-68
2021/06/04 04:56:08;;;;;;;9.50;5.78;;;;;;;24.81;41.22;101031.41;5057121;28;20075;-69
2021/06/04 04:58:36;;;;;;;13.27;6.20;;;;;;;24.70;40.75;101039.88;5056750;28;20082;-69
2021/06/04 05:01:07;;;;;;;11.77;6.20;;;;;;;24.40;41.35;101038.56;5056654;28;20098;-69
2021/06/04 05:03:35;;;;;;;8.57;6.15;;;;;;;24.66;40.23;101035.78;5055914;28;20455;-69
2021/06/04 05:06:06;;;;;;;10.77;5.95;;;;;;;24.92;39.90;101038.44;5046004;28;20041;-76
2021/06/04 05:08:35;;;;;;;11.27;5.70;;;;;;;25.57;38.23;101041.28;5054901;28;20448;-70
2021/06/04 05:11:03;;;;;;;8.77;5.82;;;;;;;25.61;38.87;101037.19;5055203;28;20041;-73
2021/06/04 05:13:32;;;;;;;8.98;5.88;;;;;;;25.82;37.54;101033.97;5056111;28;20041;-73
2021/06/04 05:16:03;;;;;;;9.32;5.45;;;;;;;25.32;38.61;101035.81;5056230;28;20056;-72
2021/06/04 05:18:32;;;;;;;10.55;5.88;;;;;;;26.67;35.77;101035.13;5056243;28;20410;-69
2021/06/04 05:21:02;;;;;;;11.13;6.10;;;;;;;26.08;37.52;101031.88;5056343;28;20053;-70
2021/06/04 05:23:31;;;;;;;9.35;5.63;;;;;;;26.22;36.75;101041.22;5055933;28;20091;-71
2021/06/04 05:25:59;;;;;;;9.68;5.80;;;;;;;26.75;36.97;101043.31;5056051;28;20045;-73
2021/06/04 05:28:28;;;;;;;9.10;5.57;;;;;;;26.79;35.52;101041.03;5055955;28;20053;-72
2021/06/04 05:31:02;;;;;;;8.57;5.43;;;;;;;26.53;36.28;101044.91;5056091;28;20453;-73
2021/06/04 05:33:34;;;;;;;14.38;6.10;;;;;;;26.45;36.43;101050.44;5055965;28;20059;-74
2021/06/04 05:36:04;;;;;;;11.30;6.00;;;;;;;26.85;35.79;101054.03;5055668;28;20072;-75
2021/06/04 05:38:33;;;;;;;9.82;6.05;;;;;;;26.50;36.25;101044.41;5055960;28;20090;-74
2021/06/04 05:41:01;;;;;;;12.43;6.30;;;;;;;26.41;36.79;101048.22;5055800;28;20053;-71
2021/06/04 05:43:32;;;;;;;13.38;6.90;;;;;;;26.42;36.57;101045.31;5055999;28;20048;-70
2021/06/04 05:46:02;;;;;;;9.10;6.00;;;;;;;27.14;34.67;101042.44;5054103;28;20057;-70
2021/06/04 05:48:30;;;;;;;12.10;5.72;;;;;;;27.44;33.87;101048.03;5054835;28;20136;-71
2021/06/04 05:51:03;;;;;;;8.98;6.25;;;;;;;27.92;32.47;101039.41;5054385;28;20096;-70
2021/06/04 05:53:37;;;;;;;10.73;5.85;;;;;;;27.97;32.80;101047.06;5054472;28;20040;-75
2021/06/04 05:56:07;;;;;;;11.48;6.00;;;;;;;28.12;33.12;101047.09;5053913;28;20047;-73
2021/06/04 05:58:36;;;;;;;13.35;6.75;;;;;;;28.47;32.76;101045.53;5054644;28;20045;-74
2021/06/04 06:01:08;;;;;;;8.98;6.00;;;;;;;28.76;31.67;101047.41;5053941;28;20501;-72
2021/06/04 06:03:38;;;;;;;11.98;6.63;;;;;;;28.49;32.25;101051.69;5054440;28;20063;-72
2021/06/04 06:06:08;;;;;;;12.05;6.45;;;;;;;28.76;31.59;101048.25;5053227;28;20494;-72
2021/06/04 06:08:39;;;;;;;11.63;6.20;;;;;;;28.83;31.52;101056.56;5054284;28;20095;-72
2021/06/04 06:11:08;;;;;;;10.57;5.50;;;;;;;29.25;30.22;101055.00;5058064;28;20486;-76
2021/06/04 06:13:37;;;;;;;9.65;5.63;;;;;;;29.32;30.12;101061.38;5054236;28;20041;-75
2021/06/04 06:16:06;;;;;;;10.43;6.40;;;;;;;29.40;30.13;101050.28;5054129;28;20065;-70
2021/06/04 06:18:37;;;;;;;9.80;6.10;;;;;;;29.66;28.50;101049.72;5051048;28;20128;-71
2021/06/04 06:21:06;;;;;;;12.98;6.25;;;;;;;29.50;28.65;101055.47;5053607;28;20069;-72
2021/06/04 06:23:35;;;;;;;14.73;5.90;;;;;;;29.20;29.35;101051.97;5053548;28;20056;-74
2021/06/04 06:26:08;;;;;;;10.02;5.93;;;;;;;29.60;29.50;101054.09;5053539;28;20048;-72
2021/06/04 06:28:38;;;;;;;9.93;6.20;;;;;;;29.69;28.81;101051.22;5037099;28;20390;-71
2021/06/04 06:31:09;;;;;;;9.45;6.72;;;;;;;29.82;28.24;101062.31;5053686;28;20390;-73
2021/06/04 06:33:37;;;;;;;7.65;4.65;;;;;;;29.99;26.44;101047.22;5052973;28;20048;-70
2021/06/04 06:36:07;;;;;;;6.35;4.63;;;;;;;30.20;26.34;101054.59;5053174;28;20044;-70
2021/06/04 06:38:38;;;;;;;10.02;5.35;;;;;;;30.06;26.43;101053.63;5053365;28;20446;-73
2021/06/04 06:41:10;;;;;;;9.20;4.85;;;;;;;30.25;27.36;101049.34;5053163;28;20041;-74
2021/06/04 06:43:40;;;;;;;7.07;4.47;;;;;;;29.45;26.84;101056.03;5052153;28;20045;-73
2021/06/04 06:46:09;;;;;;;8.90;4.68;;;;;;;29.71;26.75;101058.19;5050270;28;100054;-73
2021/06/04 06:48:38;;;;;;;8.77;4.70;;;;;;;30.12;26.88;101052.88;5038214;28;20037;-73
2021/06/04 06:51:09;;;;;;;10.30;5.00;;;;;;;30.14;27.45;101061.78;5054166;28;20061;-73
2021/06/04 06:53:39;;;;;;;10.65;4.82;;;;;;;29.75;27.55;101056.78;5054195;28;20083;-73
2021/06/04 06:56:12;;;;;;;10.10;4.70;;;;;;;29.71;28.34;101057.34;5054163;28;20048;-72
2021/06/04 06:58:40;;;;;;;10.90;4.28;;;;;;;29.12;28.35;101058.41;5038155;28;20124;-72
2021/06/04 07:01:09;;;;;;;8.50;4.57;;;;;;;28.23;29.37;101054.88;5054192;28;20131;-73
2021/06/04 07:03:41;;;;;;;11.10;4.53;;;;;;;27.89;29.64;101053.50;5053992;28;20053;-72
2021/06/04 07:06:13;;;;;;;12.77;4.70;;;;;;;27.32;30.49;101059.41;5053477;28;20513;-72
2021/06/04 07:08:41;;;;;;;11.60;4.68;;;;;;;27.33;31.13;101058.38;5038250;28;20750;-72
2021/06/04 07:11:12;;;;;;;10.13;4.32;;;;;;;26.95;31.74;101062.03;5053588;28;20473;-73
2021/06/04 07:13:40;;;;;;;10.10;4.60;;;;;;;27.27;32.02;101050.03;5053122;28;20041;-72
2021/06/04 07:16:10;;;;;;;9.98;4.38;;;;;;;27.31;31.06;101065.94;5053629;28;20045;-72
2021/06/04 07:18:39;;;;;;;14.30;5.07;;;;;;;27.12;31.48;101066.41;5037580;28;20048;-72
2021/06/04 07:21:09;;;;;;;7.38;4.30;;;;;;;26.93;31.67;101061.34;5053725;28;20048;-72
2021/06/04 07:23:37;;;;;;;10.20;4.78;;;;;;;26.50;31.54;101061.69;5053299;28;20044;-71
2021/06/04 07:26:06;;;;;;;10.25;4.80;;;;;;;26.47;32.21;101061.19;5053057;28;20047;-72
2021/06/04 07:28:37;;;;;;;8.38;4.38;;;;;;;26.36;32.24;101064.28;5053205;28;20118;-73
2021/06/04 07:31:08;;;;;;;10.15;4.70;;;;;;;26.35;31.45;101062.56;5053455;28;20045;-72
2021/06/04 07:33:38;;;;;;;7.88;4.10;;;;;;;26.34;31.59;101061.69;5053269;28;20048;-72
2021/06/04 07:36:13;;;;;;;10.90;4.70;;;;;;;26.39;32.91;101063.94;5052801;28;20037;-72
2021/06/04 07:38:41;;;;;;;10.32;4.75;;;;;;;26.38;32.11;101062.25;5037522;28;20045;-71
2021/06/04 07:41:09;;;;;;;11.50;4.40;;;;;;;26.40;31.78;101061.03;5053199;28;20379;-73
2021/06/04 07:43:41;;;;;;;8.05;4.30;;;;;;;26.34;31.13;101052.63;5052903;28;20045;-73
2021/06/04 07:46:09;;;;;;;11.32;4.32;;;;;;;25.83;31.10;101057.53;5052611;28;20144;-73
2021/06/04 07:48:37;;;;;;;8.00;4.03;;;;;;;25.37;32.71;101068.06;5036612;28;20037;-73
2021/06/04 07:51:09;;;;;;;10.63;4.70;;;;;;;25.54;32.24;101058.88;5053179;28;20060;-73
2021/06/04 07:53:39;;;;;;;7.95;4.18;;;;;;;25.65;31.81;101057.66;5053190;28;20041;-73
2021/06/04 07:56:09;;;;;;;10.27;3.78;;;;;;;25.66;31.47;101062.94;5052906;28;20033;-73
2021/06/04 07:58:38;;;;;;;8.85;3.58;;;;;;;25.90;31.99;101059.41;5036435;28;20041;-73
2021/06/04 08:01:06;;;;;;;9.15;3.92;;;;;;;25.98;30.91;101057.69;5053697;28;20045;-73
2021/06/04 08:03:35;;;;;;;9.75;3.70;;;;;;;25.85;30.56;101060.94;5053944;28;20119;-72
2021/06/04 08:06:04;;;;;;;7.13;3.65;;;;;;;25.50;31.34;101067.59;5052731;28;20083;-73
2021/06/04 08:08:34;;;;;;;7.70;3.85;;;;;;;25.67;31.60;101064.69;5052914;28;20051;-72
2021/06/04 08:11:08;;;;;;;8.88;3.65;;;;;;;25.64;30.66;101054.09;5051843;28;20059;-72
2021/06/04 08:13:37;;;;;;;5.50;3.38;;;;;;;25.42;29.92;101064.84;5052759;28;20095;-72
2021/06/04 08:16:10;;;;;;;7.78;3.80;;;;;;;24.85;32.01;101062.78;5052644;28;20116;-71
2021/06/04 08:18:39;;;;;;;7.47;3.85;;;;;;;25.05;32.16;101064.25;5036753;28;20037;-73
2021/06/04 08:21:12;;;;;;;7.25;3.65;;;;;;;25.27;30.99;101073.69;5052589;28;20527;-72
2021/06/04 08:23:43;;;;;;;6.72;3.35;;;;;;;25.54;31.02;101063.47;5052621;28;20435;-71
2021/06/04 08:26:13;;;;;;;7.00;3.47;;;;;;;25.59;30.93;101061.94;5052268;28;20041;-72
2021/06/04 08:28:42;;;;;;;6.82;3.65;;;;;;;25.68;31.25;101066.41;5052586;28;20102;-73
2021/06/04 08:31:11;;;;;;;8.63;3.90;;;;;;;25.71;30.87;101064.38;5052566;28;20501;-72
2021/06/04 08:33:42;;;;;;;9.57;3.60;;;;;;;25.28;31.15;101063.59;5052742;28;20454;-71
2021/06/04 08:36:13;;;;;;;9.63;3.92;;;;;;;25.39;32.27;101057.84;5052092;28;20045;-72
2021/06/04 08:38:41;;;;;;;9.60;3.90;;;;;;;25.62;32.34;101056.13;5036571;28;20486;-73
2021/06/04 08:41:19;;;;;;;6.93;3.58;;;;;;;25.63;31.71;101057.84;5052462;28;20072;-73
2021/06/04 08:44:01;;;;;;;11.00;4.07;;;;;;;25.82;32.48;101056.69;5052659;28;20064;-72
2021/06/04 08:46:33;;;;;;;10.07;4.13;;;;;;;25.94;31.61;101059.91;5051950;28;20437;-72
2021/06/04 08:49:08;;;;;;;10.52;4.22;;;;;;;25.99;31.82;101052.06;5052314;28;20426;-72
2021/06/04 08:51:41;;;;;;;8.52;3.85;;;;;;;25.97;31.31;101048.66;5052614;28;20041;-74
2021/06/04 08:54:15;;;;;;;;;;;;;;;26.08;30.78;101039.22;5052848;28;20037;-71
2021/06/04 08:56:49;;;;;;;6.70;3.70;;;;;;;26.09;30.90;101039.03;5036833;28;19963;-73
2021/06/04 08:59:19;;;;;;;6.72;3.42;;;;;;;26.02;31.00;101034.44;5052150;28;20048;-71
2021/06/04 09:01:53;;;;;;;11.43;3.88;;;;;;;26.09;30.90;101036.31;5052172;28;20049;-74
2021/06/04 09:04:25;;;;;;;6.70;3.42;;;;;;;26.20;31.23;101030.47;5051960;28;20078;-73
2021/06/04 09:07:00;;;;;;;8.77;4.03;;;;;;;26.36;30.61;101034.19;5051529;28;20561;-75
2021/06/04 09:09:34;;;;;;;7.32;3.88;;;;;;;26.30;30.57;101032.16;5052210;28;20059;-74
2021/06/04 09:12:10;;;;;;;8.77;3.92;;;;;;;26.19;31.15;101036.97;5052167;28;20052;-74
2021/06/04 09:14:38;;;;;;;6.45;3.53;;;;;;;26.30;30.46;101026.69;5051145;28;20036;-75
2021/06/04 09:17:15;;;;;;;9.57;3.63;;;;;;;26.33;30.72;101026.31;5052083;28;20048;-73
2021/06/04 09:19:56;;;;;;;10.35;3.85;;;;;;;26.58;30.27;101027.97;5052120;28;20071;-71
2021/06/04 09:22:38;;;;;;;8.10;3.70;;;;;;;26.72;30.44;101023.63;5052074;28;20108;-71
2021/06/04 09:25:11;;;;;;;7.28;3.80;;;;;;;26.80;29.82;101023.59;5051842;28;20079;-74
2021/06/04 09:27:41;;;;;;;8.00;3.78;;;;;;;26.95;29.92;101027.28;5052187;28;20560;-71
2021/06/04 09:30:20;;;;;;;8.43;3.80;;;;;;;27.08;29.66;101023.97;5052067;28;20047;-71
2021/06/04 09:33:09;;;;;;;7.32;3.83;;;;;;;26.82;30.08;101024.25;5037121;28;20036;-72
2021/06/04 09:35:39;;;;;;;7.63;3.53;;;;;;;26.46;30.01;101026.66;5052134;28;20061;-72
2021/06/04 09:38:14;;;;;;;5.03;3.53;;;;;;;26.56;30.35;101021.84;5055618;28;20041;-72
2021/06/04 09:40:43;;;;;;;6.22;3.38;;;;;;;26.77;29.19;101016.59;5040037;28;20048;-71
2021/06/04 09:43:21;;;;;;;7.93;3.40;;;;;;;26.94;29.62;101011.03;5055286;28;20076;-75
2021/06/04 09:45:56;;;;;;;5.85;3.20;;;;;;;27.10;29.03;101020.00;5055226;28;20059;-76
2021/06/04 09:48:37;;;;;;;6.07;3.50;;;;;;;27.32;29.18;101015.59;5055476;28;20049;-74
2021/06/04 09:51:12;;;;;;;11.07;3.78;;;;;;;27.49;28.23;101007.22;5055279;28;20517;-75
2021/06/04 09:53:41;;;;;;;6.28;3.67;;;;;;;27.54;28.43;101010.28;5055346;28;20530;-71
2021/06/04 09:56:18;;;;;;;7.00;3.45;;;;;;;27.42;28.11;101014.50;5055016;28;20045;-75
2021/06/04 09:58:51;;;;;;;9.35;3.80;;;;;;;27.42;28.62;101003.53;5039965;28;20442;-73
2021/06/04 10:01:21;;;;;;;7.97;3.55;;;;;;;27.42;29.05;101006.28;5055274;28;20033;-74
2021/06/04 10:03:56;;;;;;;7.75;3.67;;;;;;;27.61;29.04;101005.78;5054866;28;20489;-73
2021/06/04 10:06:41;;;;;;;6.53;3.58;;;;;;;27.76;28.96;101009.41;5054820;28;20597;-74
2021/06/04 10:09:30;;;;;;;10.07;4.00;;;;;;;27.95;28.07;101003.41;5055091;28;20057;-69
2021/06/04 10:12:06;;;;;;;6.20;3.88;;;;;;;27.37;28.49;101002.19;5049429;28;20106;-74
2021/06/04 10:14:52;;;;;;;6.68;3.83;;;;;;;27.17;28.88;100998.25;5038216;28;20045;-74
2021/06/04 10:17:43;;;;;;;9.23;3.85;;;;;;;27.38;29.44;100998.41;5054781;28;20064;-74
2021/06/04 10:20:33;;;;;;;8.23;4.05;;;;;;;27.60;29.17;100993.06;5054859;28;20477;-72
2021/06/04 10:23:21;;;;;;;7.63;3.72;;;;;;;27.82;28.71;100986.75;5054784;28;20040;-74
2021/06/04 10:25:53;;;;;;;9.80;4.00;;;;;;;27.98;28.51;100995.81;5052709;28;20061;-73
2021/06/04 10:28:31;;;;;;;8.80;4.10;;;;;;;27.69;29.24;100992.00;5054681;28;20512;-71
2021/06/04 10:31:07;;;;;;;8.13;4.30;;;;;;;27.72;29.25;100990.81;5054618;28;20033;-72
2021/06/04 10:33:40;;;;;;;8.20;4.00;;;;;;;27.63;28.57;100990.00;5053621;28;20061;-74
2021/06/04 10:36:14;;;;;;;7.65;3.63;;;;;;;27.53;29.11;100986.66;5054319;28;20049;-75
2021/06/04 10:38:46;;;;;;;9.30;3.88;;;;;;;27.45;29.26;100995.78;5039045;28;20082;-74
2021/06/04 10:41:16;;;;;;;8.88;4.00;;;;;;;26.87;29.75;100982.69;5054319;28;20045;-73
2021/06/04 10:44:01;;;;;;;5.90;3.58;;;;;;;26.86;30.49;100989.19;5053218;28;20045;-74
2021/06/04 10:46:37;;;;;;;10.80;4.20;;;;;;;27.09;29.95;100979.13;5054043;28;20487;-77
2021/06/04 10:49:17;;;;;;;6.45;3.83;;;;;;;27.24;29.78;100991.00;5054168;28;20421;-76
2021/06/04 10:51:56;;;;;;;7.47;3.78;;;;;;;27.20;29.68;100981.44;5054260;28;20056;-73
2021/06/04 10:54:38;;;;;;;5.95;3.78;;;;;;;26.90;29.78;100977.69;5054312;28;20072;-75
2021/06/04 10:57:11;;;;;;;5.85;3.90;;;;;;;26.51;30.43;100975.84;5054166;28;20437;-74
2021/06/04 10:59:48;;;;;;;6.25;3.53;;;;;;;26.43;31.32;100977.78;5054236;28;20041;-74
2021/06/04 11:02:24;;;;;;;8.00;3.95;;;;;;;26.69;29.81;100978.31;5053996;28;20056;-71
2021/06/04 11:05:01;;;;;;;13.70;4.05;;;;;;;26.87;29.87;100969.00;5053634;28;20118;-75
2021/06/04 11:07:37;;;;;;;7.93;4.00;;;;;;;26.97;29.70;100969.59;5053777;28;20075;-73
2021/06/04 11:10:17;;;;;;;8.93;4.13;;;;;;;27.15;29.16;100967.47;5052755;28;20056;-74
2021/06/04 11:13:00;;;;;;;7.28;3.63;;;;;;;27.22;29.48;100962.97;5038536;28;20048;-75
2021/06/04 11:15:42;;;;;;;8.32;3.90;;;;;;;27.27;29.59;100955.03;5053420;28;20148;-73
2021/06/04 11:18:14;;;;;;;9.63;3.90;;;;;;;27.50;29.45;100948.66;5053797;28;20116;-73
2021/06/04 11:20:51;;;;;;;7.10;3.35;;;;;;;27.48;28.37;100951.59;5038077;28;20036;-73
2021/06/04 11:23:28;;;;;;;8.02;4.10;;;;;;;27.36;28.52;100950.34;5053429;28;20053;-75
2021/06/04 11:25:59;;;;;;;9.45;3.92;;;;;;;27.14;28.35;100943.84;5052700;28;20037;-71
2021/06/04 11:28:36;;;;;;;7.28;3.58;;;;;;;27.07;28.91;100940.97;5052848;28;20085;-71
2021/06/04 11:31:08;;;;;;;5.20;3.65;;;;;;;27.11;28.61;100944.19;5053212;28;20049;-72
2021/06/04 11:33:40;;;;;;;9.07;4.30;;;;;;;26.99;29.71;100945.63;5053428;28;20047;-75
2021/06/04 11:36:12;;;;;;;6.47;4.10;;;;;;;27.07;29.68;100948.34;5052601;28;20045;-69
2021/06/04 11:38:48;;;;;;;7.78;4.00;;;;;;;26.95;29.52;100944.31;5037731;28;20436;-75
2021/06/04 11:41:21;;;;;;;11.60;3.92;;;;;;;26.92;29.33;100945.50;5053295;28;20047;-73
2021/06/04 11:43:55;;;;;;;6.35;3.60;;;;;;;26.85;29.40;100939.06;5053727;28;20037;-72
2021/06/04 11:46:27;;;;;;;5.32;3.20;;;;;;;26.88;28.84;100940.59;5053318;28;20140;-69